Time;durP1;ratioP1;P1;durP2;ratioP2;P2;SDS_P1;SDS_P2;PMS_P1;PMS_P2;Temp;Humidity;BMP_temperature;BMP_pressure;BME280_temperature;BME280_humidity;BME280_pressure;Samples;Min_cycle;Max_cycle;Signal;HPM_P1;HPM_P2
2023/03/29 00:01:44;;;;;;;3.40;1.88;;;6.50;99.90;;;;;;4196245;28;20072;-85
2023/03/29 00:03:46;;;;;;;6.40;2.13;;;5.40;99.90;;;;;;4195384;28;20045;-85
2023/03/29 00:05:48;;;;;;;3.83;2.00;;;5.40;99.90;;;;;;4174496;28;20041;-85
2023/03/29 00:07:52;;;;;;;4.93;2.15;;;5.20;99.90;;;;;;4178434;28;20533;-85
2023/03/29 00:09:53;;;;;;;4.50;2.10;;;5.40;99.90;;;;;;4182568;28;20037;-85
2023/03/29 00:11:56;;;;;;;6.20;2.80;;;5.60;99.90;;;;;;4193865;28;20052;-85
2023/03/29 00:13:58;;;;;;;5.07;2.88;;;5.40;99.90;;;;;;4190433;28;20061;-85
2023/03/29 00:15:59;;;;;;;4.97;2.80;;;5.40;99.90;;;;;;4194297;28;20039;-85
2023/03/29 00:17:59;;;;;;;5.95;1.92;;;5.90;99.90;;;;;;4189422;28;20457;-85
2023/03/29 00:20:01;;;;;;;4.07;2.20;;;5.40;99.90;;;;;;4201360;28;20396;-85
2023/03/29 00:22:06;;;;;;;3.38;1.52;;;5.70;99.90;;;;;;4199853;28;20048;-84
2023/03/29 00:24:07;;;;;;;3.78;2.10;;;5.40;99.90;;;;;;4188616;28;20095;-84
2023/03/29 00:26:07;;;;;;;4.78;2.00;;;5.40;99.90;;;;;;4196566;28;20049;-85
2023/03/29 00:28:09;;;;;;;4.20;2.28;;;5.40;99.90;;;;;;4166867;28;20049;-84
2023/03/29 00:30:11;;;;;;;7.80;3.17;;;5.40;99.90;;;;;;4186919;28;20098;-85
2023/03/29 00:32:12;;;;;;;3.60;2.20;;;5.30;99.90;;;;;;4195366;28;20124;-84
2023/03/29 00:34:12;;;;;;;5.43;2.00;;;5.30;99.90;;;;;;4184723;28;20045;-85
2023/03/29 00:36:14;;;;;;;6.78;2.20;;;5.50;99.90;;;;;;4172016;28;20065;-85
2023/03/29 00:38:15;;;;;;;6.07;1.67;;;6.00;99.90;;;;;;4201215;28;20059;-84
2023/03/29 00:40:16;;;;;;;2.95;1.77;;;5.20;99.90;;;;;;4183129;28;20045;-85
2023/03/29 00:42:19;;;;;;;3.00;1.60;;;5.30;99.90;;;;;;4178343;28;20108;-85
2023/03/29 00:44:58;;;;;;;4.88;1.63;;;5.40;99.90;;;;;;4187947;28;20052;-84
2023/03/29 00:46:59;;;;;;;4.30;1.50;;;5.30;99.90;;;;;;4177612;28;20417;-84
2023/03/29 00:49:14;;;;;;;3.50;1.55;;;4.80;99.90;;;;;;4184045;28;20053;-85
2023/03/29 00:51:19;;;;;;;5.95;1.63;;;4.80;99.90;;;;;;4188438;28;20056;-85
2023/03/29 00:53:32;;;;;;;4.95;1.65;;;6.10;99.90;;;;;;4197285;28;20514;-85
2023/03/29 00:55:41;;;;;;;5.65;1.98;;;5.30;99.90;;;;;;4184797;28;20075;-85
2023/03/29 00:57:45;;;;;;;7.03;1.88;;;5.30;99.90;;;;;;4183030;28;20041;-85
2023/03/29 00:59:48;;;;;;;3.60;1.85;;;5.40;99.90;;;;;;4198657;28;20135;-85
2023/03/29 01:01:57;;;;;;;2.40;1.48;;;5.40;99.90;;;;;;4167640;28;20508;-85
2023/03/29 01:04:07;;;;;;;3.05;1.73;;;5.30;99.90;;;;;;4188251;28;20047;-85
2023/03/29 01:06:10;;;;;;;3.95;1.98;;;5.30;99.90;;;;;;4170003;28;20053;-85
2023/03/29 01:08:20;;;;;;;3.00;1.58;;;5.30;99.90;;;;;;4194961;28;20045;-84
2023/03/29 01:10:33;;;;;;;5.50;2.08;;;5.30;99.90;;;;;;4189740;28;20403;-85
2023/03/29 01:12:43;;;;;;;3.65;1.50;;;5.30;99.90;;;;;;4175173;28;20049;-85
2023/03/29 01:14:47;;;;;;;3.00;1.70;;;4.70;99.90;;;;;;4191053;28;20045;-85
2023/03/29 01:16:49;;;;;;;4.13;1.90;;;5.40;99.90;;;;;;4184515;28;20126;-85
2023/03/29 01:18:51;;;;;;;4.00;1.58;;;5.30;99.90;;;;;;4175964;28;20052;-85
2023/03/29 01:21:23;;;;;;;4.38;2.00;;;5.40;99.90;;;;;;4178480;28;20041;-85
2023/03/29 01:23:37;;;;;;;3.55;1.92;;;5.30;99.90;;;;;;4188192;28;20095;-85
2023/03/29 01:25:55;;;;;;;5.30;1.67;;;5.40;99.90;;;;;;4183005;28;20540;-85
2023/03/29 01:28:20;;;;;;;3.85;1.60;;;5.30;99.90;;;;;;4184360;28;20045;-85
2023/03/29 01:30:42;;;;;;;5.38;2.40;;;5.30;99.90;;;;;;4166608;28;20058;-85
2023/03/29 01:32:50;;;;;;;4.97;1.98;;;5.40;99.90;;;;;;4191644;28;20551;-85
2023/03/29 01:34:57;;;;;;;2.53;1.73;;;5.40;99.90;;;;;;4188853;28;20096;-85
2023/03/29 01:37:11;;;;;;;8.27;2.55;;;5.50;99.90;;;;;;4184061;28;20055;-85
2023/03/29 01:39:11;;;;;;;4.15;1.92;;;5.40;99.90;;;;;;4178776;28;20052;-85
2023/03/29 01:41:13;;;;;;;4.43;1.77;;;5.70;99.90;;;;;;4178165;28;20061;-84
2023/03/29 01:43:35;;;;;;;5.00;1.80;;;6.40;99.90;;;;;;4198939;28;20033;-84
2023/03/29 01:45:48;;;;;;;3.47;1.65;;;5.40;99.90;;;;;;4197886;28;20484;-84
2023/03/29 01:48:08;;;;;;;6.05;1.95;;;5.40;99.90;;;;;;4200828;28;20067;-85
2023/03/29 01:50:27;;;;;;;5.35;2.83;;;5.40;99.90;;;;;;4201125;28;20048;-84
2023/03/29 01:52:39;;;;;;;3.80;1.70;;;5.50;99.90;;;;;;4215562;28;20051;-84
2023/03/29 01:54:48;;;;;;;3.47;1.50;;;4.60;99.90;;;;;;4174184;28;20080;-84
2023/03/29 01:56:50;;;;;;;3.90;2.08;;;5.40;99.90;;;;;;4176084;28;20106;-84
2023/03/29 01:59:02;;;;;;;5.03;1.83;;;5.50;99.90;;;;;;4173220;28;20063;-84
2023/03/29 02:01:09;;;;;;;6.95;1.90;;;5.40;99.90;;;;;;4190844;28;20052;-85
2023/03/29 02:03:13;;;;;;;4.72;2.03;;;4.90;99.90;;;;;;4198654;28;20466;-84
2023/03/29 02:05:15;;;;;;;4.43;1.70;;;5.40;99.90;;;;;;4186908;28;20131;-85
2023/03/29 02:07:21;;;;;;;6.07;2.30;;;5.40;99.90;;;;;;4197199;28;20036;-84
2023/03/29 02:09:22;;;;;;;6.60;2.30;;;5.40;99.90;;;;;;4185322;28;20049;-84
2023/03/29 02:11:25;;;;;;;5.82;2.40;;;5.40;99.90;;;;;;4167877;28;20110;-84
2023/03/29 02:13:26;;;;;;;9.48;2.58;;;5.60;99.90;;;;;;4184072;28;20551;-85
2023/03/29 02:15:29;;;;;;;4.35;2.10;;;5.40;99.90;;;;;;4195212;28;20158;-85
2023/03/29 02:17:30;;;;;;;10.13;2.40;;;5.50;99.90;;;;;;4184333;28;20075;-85
2023/03/29 02:19:33;;;;;;;7.60;2.63;;;5.50;99.90;;;;;;4197411;28;20436;-85
2023/03/29 02:22:02;;;;;;;5.15;2.70;;;5.40;99.90;;;;;;4180947;28;20094;-84
2023/03/29 02:24:07;;;;;;;11.85;1.92;;;5.40;99.90;;;;;;4188237;28;20032;-84
2023/03/29 02:26:09;;;;;;;4.60;2.03;;;5.40;99.90;;;;;;4212979;28;20044;-85
2023/03/29 02:28:10;;;;;;;6.40;2.80;;;5.80;99.90;;;;;;4202431;28;20078;-85
2023/03/29 02:30:14;;;;;;;6.80;2.58;;;5.30;99.90;;;;;;4210526;28;20094;-85
2023/03/29 02:32:39;;;;;;;4.97;2.25;;;5.30;99.90;;;;;;4193559;28;20557;-85
2023/03/29 02:34:57;;;;;;;6.85;2.78;;;5.40;99.90;;;;;;4199541;28;20049;-85
2023/03/29 02:37:11;;;;;;;7.43;2.38;;;5.30;99.90;;;;;;4209535;28;20052;-85
2023/03/29 02:39:14;;;;;;;3.65;2.08;;;5.30;99.90;;;;;;4201983;28;20127;-85
2023/03/29 02:41:16;;;;;;;6.07;2.20;;;5.30;99.90;;;;;;4177626;28;20059;-85
2023/03/29 02:43:20;;;;;;;5.22;2.55;;;5.30;99.90;;;;;;4199429;28;20092;-84
2023/03/29 02:45:22;;;;;;;4.25;2.38;;;5.70;99.90;;;;;;4182691;28;20132;-84
2023/03/29 02:47:32;;;;;;;7.20;3.15;;;4.50;99.90;;;;;;4202434;28;20103;-84
2023/03/29 02:49:34;;;;;;;5.97;2.70;;;6.20;99.90;;;;;;4200915;28;20186;-84
2023/03/29 02:51:37;;;;;;;7.07;2.72;;;5.40;99.90;;;;;;4204243;28;20048;-85
2023/03/29 02:53:43;;;;;;;5.28;2.60;;;5.40;99.90;;;;;;4217601;28;20051;-84
2023/03/29 02:55:45;;;;;;;7.50;2.53;;;5.40;99.90;;;;;;4186975;28;20056;-85
2023/03/29 02:57:46;;;;;;;9.18;3.22;;;5.40;99.90;;;;;;4218078;28;20044;-85
2023/03/29 02:59:47;;;;;;;5.30;2.65;;;5.40;99.90;;;;;;4187534;28;20067;-84
2023/03/29 03:01:51;;;;;;;6.68;3.05;;;5.40;99.90;;;;;;4205051;28;20056;-85
2023/03/29 03:03:53;;;;;;;5.82;3.53;;;5.70;99.90;;;;;;4186710;28;20068;-84
2023/03/29 03:05:54;;;;;;;5.95;2.75;;;5.40;99.90;;;;;;4199949;28;20052;-85
2023/03/29 03:07:56;;;;;;;6.53;2.63;;;5.40;99.90;;;;;;4218523;28;20051;-84
2023/03/29 03:09:57;;;;;;;4.25;2.38;;;5.40;99.90;;;;;;4208109;28;20052;-85
2023/03/29 03:11:58;;;;;;;6.70;2.70;;;5.40;99.90;;;;;;4185865;28;20045;-85
2023/03/29 03:13:59;;;;;;;8.13;3.10;;;5.40;99.90;;;;;;4185237;28;20072;-85
2023/03/29 03:16:01;;;;;;;5.53;2.58;;;5.50;99.90;;;;;;4191292;28;20052;-84
2023/03/29 03:18:03;;;;;;;4.32;2.50;;;5.40;99.90;;;;;;4182460;28;20475;-84
2023/03/29 03:20:11;;;;;;;8.75;2.65;;;5.40;99.90;;;;;;4200313;28;20547;-84
2023/03/29 03:22:12;;;;;;;5.65;2.83;;;5.40;99.90;;;;;;4185134;28;20041;-84
2023/03/29 03:24:14;;;;;;;9.75;2.83;;;5.90;99.90;;;;;;4180660;28;20052;-84
2023/03/29 03:26:17;;;;;;;4.05;2.47;;;5.40;99.90;;;;;;4173614;28;20087;-84
2023/03/29 03:28:19;;;;;;;6.60;2.50;;;5.80;99.90;;;;;;4196017;28;20059;-84
2023/03/29 03:30:21;;;;;;;6.13;2.97;;;5.90;99.90;;;;;;4190746;28;20083;-84
2023/03/29 03:32:21;;;;;;;6.22;2.95;;;5.40;99.90;;;;;;4195514;28;20043;-84
2023/03/29 03:34:22;;;;;;;5.82;2.88;;;4.60;99.90;;;;;;4171568;28;20097;-84
2023/03/29 03:36:24;;;;;;;6.85;2.95;;;5.40;99.90;;;;;;4201280;28;20041;-84
2023/03/29 03:38:25;;;;;;;4.63;2.90;;;5.40;99.90;;;;;;4196355;28;20040;-84
2023/03/29 03:40:26;;;;;;;6.22;3.00;;;5.40;99.90;;;;;;4190398;28;20546;-84
2023/03/29 03:42:28;;;;;;;7.18;2.90;;;5.40;99.90;;;;;;4200000;28;20040;-83
2023/03/29 03:44:29;;;;;;;7.43;2.75;;;6.00;99.90;;;;;;4178883;28;20076;-83
2023/03/29 03:46:30;;;;;;;5.97;2.60;;;5.40;99.90;;;;;;4176060;28;20120;-84
2023/03/29 03:48:31;;;;;;;6.00;2.75;;;5.40;99.90;;;;;;4193067;28;20050;-83
2023/03/29 03:50:32;;;;;;;7.97;2.78;;;5.40;99.90;;;;;;4206883;28;20045;-83
2023/03/29 03:52:34;;;;;;;6.15;3.15;;;4.50;99.90;;;;;;4206831;28;20036;-83
2023/03/29 03:54:34;;;;;;;6.95;3.00;;;5.70;99.90;;;;;;4208884;28;20040;-83
2023/03/29 03:56:36;;;;;;;5.88;2.75;;;5.60;99.90;;;;;;4198211;28;20059;-83
2023/03/29 03:58:37;;;;;;;7.65;3.28;;;5.40;99.90;;;;;;4192836;28;20454;-83
2023/03/29 04:00:40;;;;;;;9.50;3.40;;;5.40;99.90;;;;;;4187415;28;20041;-83
2023/03/29 04:02:42;;;;;;;5.35;2.78;;;5.40;99.90;;;;;;4195217;28;20455;-84
2023/03/29 04:04:43;;;;;;;7.25;2.78;;;5.40;99.90;;;;;;4186589;28;20037;-86
2023/03/29 04:06:46;;;;;;;5.55;2.97;;;5.40;99.90;;;;;;4167909;28;20050;-84
2023/03/29 04:08:48;;;;;;;6.55;3.20;;;5.40;99.90;;;;;;4176884;28;20060;-84
2023/03/29 04:10:54;;;;;;;6.63;3.15;;;5.60;99.90;;;;;;4174156;28;20489;-84
2023/03/29 04:12:55;;;;;;;6.38;2.97;;;5.40;99.90;;;;;;4203150;28;20066;-84
2023/03/29 04:14:56;;;;;;;5.40;3.05;;;6.30;99.90;;;;;;4216261;28;20486;-84
2023/03/29 04:16:57;;;;;;;7.47;3.17;;;5.50;99.90;;;;;;4218266;28;20040;-84
2023/03/29 04:18:58;;;;;;;6.10;3.53;;;5.50;99.90;;;;;;4207923;28;20045;-84
2023/03/29 04:21:01;;;;;;;9.77;3.53;;;6.30;99.90;;;;;;4217103;28;20040;-84
2023/03/29 04:23:03;;;;;;;7.40;2.92;;;5.40;99.90;;;;;;4221259;28;20029;-85
2023/03/29 04:25:05;;;;;;;5.93;2.85;;;5.40;99.90;;;;;;4206520;28;20036;-84
2023/03/29 04:27:08;;;;;;;5.80;3.17;;;5.50;99.90;;;;;;4212756;28;20500;-84
2023/03/29 04:29:08;;;;;;;10.38;3.65;;;6.20;99.90;;;;;;4187893;28;20474;-84
2023/03/29 04:31:14;;;;;;;6.85;3.22;;;5.40;99.90;;;;;;4213565;28;20079;-84
2023/03/29 04:33:16;;;;;;;5.47;2.90;;;5.50;99.90;;;;;;4199753;28;20489;-84
2023/03/29 04:35:17;;;;;;;10.88;3.67;;;5.50;99.90;;;;;;4218097;28;20047;-84
2023/03/29 04:37:20;;;;;;;7.68;3.95;;;6.20;99.90;;;;;;4186677;28;20052;-84
2023/03/29 04:39:21;;;;;;;7.75;4.70;;;6.10;99.90;;;;;;4199974;28;20057;-84
2023/03/29 04:41:22;;;;;;;6.65;3.50;;;5.50;99.90;;;;;;4197712;28;20054;-84
2023/03/29 04:43:24;;;;;;;6.40;3.13;;;5.50;99.90;;;;;;4213244;28;20067;-84
2023/03/29 04:45:25;;;;;;;7.25;3.92;;;6.20;99.90;;;;;;4205081;28;20044;-84
2023/03/29 04:47:30;;;;;;;11.32;3.75;;;5.50;99.90;;;;;;4182994;28;20128;-84
2023/03/29 04:49:31;;;;;;;9.43;3.20;;;5.50;99.90;;;;;;4201506;28;20049;-84
2023/03/29 04:51:33;;;;;;;8.68;3.38;;;5.60;99.90;;;;;;4215511;28;20484;-84
2023/03/29 04:53:33;;;;;;;5.70;3.38;;;5.60;99.90;;;;;;4201766;28;20037;-84
2023/03/29 04:55:34;;;;;;;9.77;4.22;;;5.60;99.90;;;;;;4215485;28;20443;-84
2023/03/29 04:57:36;;;;;;;8.05;3.63;;;6.20;99.90;;;;;;4199797;28;20048;-84
2023/03/29 04:59:38;;;;;;;6.25;3.75;;;5.60;99.90;;;;;;4198816;28;20193;-84
2023/03/29 05:01:39;;;;;;;7.03;3.15;;;6.60;99.90;;;;;;4217609;28;20070;-84
2023/03/29 05:03:41;;;;;;;7.03;3.20;;;5.60;99.90;;;;;;4199634;28;20051;-84
2023/03/29 05:05:42;;;;;;;10.40;4.50;;;5.60;99.90;;;;;;4198922;28;20512;-84
2023/03/29 05:07:44;;;;;;;6.53;3.50;;;5.70;99.90;;;;;;4182292;28;20136;-84
2023/03/29 05:09:46;;;;;;;9.18;3.50;;;5.60;99.90;;;;;;4183162;28;20415;-84
2023/03/29 05:11:48;;;;;;;6.28;3.97;;;5.60;99.90;;;;;;4214727;28;20046;-84
2023/03/29 05:13:50;;;;;;;10.48;3.72;;;5.80;99.90;;;;;;4182606;28;20520;-84
2023/03/29 05:15:52;;;;;;;5.75;3.47;;;5.60;99.90;;;;;;4180635;28;20053;-84
2023/03/29 05:17:53;;;;;;;8.90;3.80;;;6.10;99.90;;;;;;4170971;28;20098;-84
2023/03/29 05:19:53;;;;;;;9.45;3.95;;;5.80;99.90;;;;;;4197188;28;20060;-85
2023/03/29 05:21:54;;;;;;;8.15;4.25;;;5.70;99.90;;;;;;4195676;28;20047;-85
2023/03/29 05:23:56;;;;;;;7.80;3.60;;;5.60;99.90;;;;;;4199606;28;20139;-85
2023/03/29 05:25:58;;;;;;;8.60;3.95;;;5.80;99.90;;;;;;4198615;28;20044;-84
2023/03/29 05:28:00;;;;;;;9.48;4.38;;;6.00;99.90;;;;;;4185404;28;20049;-85
2023/03/29 05:30:02;;;;;;;9.85;3.55;;;6.30;99.90;;;;;;4197556;28;20500;-84
2023/03/29 05:32:03;;;;;;;20.60;4.50;;;5.60;99.90;;;;;;4182449;28;20115;-84
2023/03/29 05:34:05;;;;;;;9.13;4.32;;;5.70;99.90;;;;;;4200281;28;20497;-84
2023/03/29 05:36:09;;;;;;;10.70;4.30;;;5.70;99.90;;;;;;4195314;28;20131;-85
2023/03/29 05:38:12;;;;;;;13.20;3.95;;;5.70;99.90;;;;;;4187821;28;20036;-85
2023/03/29 05:40:13;;;;;;;7.30;3.72;;;5.70;99.90;;;;;;4194834;28;20076;-84
2023/03/29 05:42:14;;;;;;;9.00;3.70;;;5.70;99.90;;;;;;4181890;28;20041;-84
2023/03/29 05:44:16;;;;;;;8.77;4.38;;;6.20;99.90;;;;;;4183946;28;20116;-85
2023/03/29 05:46:18;;;;;;;11.75;4.25;;;5.70;99.90;;;;;;4186674;28;20079;-85
2023/03/29 05:48:21;;;;;;;8.32;4.25;;;5.70;99.90;;;;;;4188999;28;20041;-84
2023/03/29 05:50:23;;;;;;;8.05;4.60;;;5.80;99.90;;;;;;4200149;28;20048;-84
2023/03/29 05:52:28;;;;;;;6.28;3.55;;;5.70;99.90;;;;;;4199827;28;20489;-84
2023/03/29 05:54:29;;;;;;;7.18;3.90;;;5.80;99.90;;;;;;4175110;28;20041;-84
2023/03/29 05:56:32;;;;;;;8.45;4.05;;;5.80;99.90;;;;;;4189964;28;20048;-84
2023/03/29 05:58:33;;;;;;;8.43;4.22;;;5.90;99.90;;;;;;4192281;28;20036;-84
2023/03/29 06:00:37;;;;;;;8.75;4.30;;;5.80;99.90;;;;;;4190296;28;20044;-85
2023/03/29 06:02:38;;;;;;;8.23;4.20;;;5.80;99.90;;;;;;4181680;28;20091;-84
2023/03/29 06:04:42;;;;;;;11.88;4.90;;;6.20;99.90;;;;;;4191291;28;20045;-84
2023/03/29 06:06:43;;;;;;;9.48;4.80;;;5.80;99.90;;;;;;4191919;28;20040;-84
2023/03/29 06:08:44;;;;;;;8.70;4.63;;;5.80;99.90;;;;;;4181555;28;20056;-84
2023/03/29 06:10:45;;;;;;;12.35;5.47;;;5.90;99.90;;;;;;4196375;28;20628;-84
2023/03/29 06:12:48;;;;;;;7.15;3.90;;;5.80;99.90;;;;;;4172530;28;20064;-84
2023/03/29 06:14:50;;;;;;;10.57;4.57;;;5.80;99.90;;;;;;4183827;28;20050;-84
2023/03/29 06:16:50;;;;;;;9.82;4.15;;;5.90;99.90;;;;;;4189319;28;20091;-84
2023/03/29 06:18:53;;;;;;;12.30;4.95;;;5.90;99.90;;;;;;4187885;28;20041;-84
2023/03/29 06:20:55;;;;;;;10.00;4.57;;;5.80;99.90;;;;;;4201606;28;20120;-84
2023/03/29 06:22:57;;;;;;;11.95;4.85;;;5.90;99.90;;;;;;4187590;28;20485;-84
2023/03/29 06:24:58;;;;;;;8.48;4.75;;;6.40;99.90;;;;;;4208345;28;20149;-85
2023/03/29 06:26:59;;;;;;;13.90;5.05;;;5.90;99.90;;;;;;4205392;28;20041;-84
2023/03/29 06:28:59;;;;;;;8.93;4.32;;;6.50;99.90;;;;;;4210516;28;20040;-84
2023/03/29 06:31:24;;;;;;;8.23;4.10;;;5.90;99.90;;;;;;4220731;28;20136;-85
2023/03/29 06:33:34;;;;;;;8.77;4.25;;;5.20;99.90;;;;;;4205041;28;20159;-85
2023/03/29 06:35:41;;;;;;;9.25;4.97;;;5.90;99.90;;;;;;4200735;28;20051;-85
2023/03/29 06:37:48;;;;;;;12.23;5.43;;;6.00;99.90;;;;;;4196309;28;20440;-84
2023/03/29 06:39:52;;;;;;;8.95;4.60;;;5.10;99.90;;;;;;4181234;28;20056;-82
2023/03/29 06:41:54;;;;;;;11.23;4.43;;;5.90;99.90;;;;;;4186807;28;20045;-85
2023/03/29 06:43:55;;;;;;;13.30;5.55;;;5.80;99.90;;;;;;4192442;28;20045;-85
2023/03/29 06:45:56;;;;;;;12.98;5.63;;;6.00;99.90;;;;;;4184823;28;20393;-82
2023/03/29 06:47:58;;;;;;;8.00;4.68;;;6.00;99.90;;;;;;4186820;28;20045;-82
2023/03/29 06:50:00;;;;;;;10.35;4.82;;;6.00;99.90;;;;;;4201826;28;20040;-84
2023/03/29 06:52:01;;;;;;;10.38;4.90;;;6.40;99.90;;;;;;4196922;28;20083;-82
2023/03/29 06:54:03;;;;;;;11.00;5.18;;;6.00;99.90;;;;;;4183306;28;20484;-83
2023/03/29 06:56:04;;;;;;;16.55;5.93;;;6.00;99.90;;;;;;4207589;28;20047;-83
2023/03/29 06:58:07;;;;;;;10.90;4.63;;;6.00;99.90;;;;;;4212035;28;20551;-83
2023/03/29 07:00:26;;;;;;;9.75;5.57;;;6.00;99.90;;;;;;4202860;28;20044;-82
2023/03/29 07:02:28;;;;;;;14.63;5.25;;;6.10;99.90;;;;;;4214465;28;20052;-83
2023/03/29 07:04:30;;;;;;;8.82;4.70;;;6.10;99.90;;;;;;4193118;28;20044;-83
2023/03/29 07:06:32;;;;;;;9.15;4.70;;;6.20;99.90;;;;;;4189877;28;20051;-83
2023/03/29 07:08:42;;;;;;;9.05;4.97;;;5.40;99.90;;;;;;4180667;28;20044;-83
2023/03/29 07:10:44;;;;;;;;;;;6.30;99.90;;;;;;4199914;28;20101;-83
2023/03/29 07:12:45;;;;;;;12.48;5.57;;;6.40;99.90;;;;;;4209618;28;19924;-83
2023/03/29 07:14:46;;;;;;;17.77;5.10;;;6.80;99.90;;;;;;4220084;28;20087;-83
2023/03/29 07:16:48;;;;;;;12.10;5.28;;;6.50;99.90;;;;;;4198381;28;20052;-83
2023/03/29 07:18:49;;;;;;;9.48;5.05;;;6.60;99.90;;;;;;4234685;28;20038;-83
2023/03/29 07:20:51;;;;;;;11.55;5.25;;;6.60;99.90;;;;;;4231166;28;20044;-84
2023/03/29 07:22:53;;;;;;;14.07;4.95;;;6.60;99.90;;;;;;4200254;28;20047;-83
2023/03/29 07:24:54;;;;;;;13.77;4.70;;;6.70;99.90;;;;;;4238333;28;20126;-83
2023/03/29 07:26:58;;;;;;;11.27;4.80;;;6.80;99.90;;;;;;4231733;28;20035;-83
2023/03/29 07:28:59;;;;;;;13.32;5.72;;;6.20;99.90;;;;;;4208460;28;20071;-83
2023/03/29 07:31:05;;;;;;;9.23;5.60;;;7.00;99.90;;;;;;4237390;28;20031;-83
2023/03/29 07:33:08;;;;;;;11.07;5.47;;;7.00;99.90;;;;;;4198076;28;20417;-82
2023/03/29 07:35:11;;;;;;;10.13;5.45;;;7.60;99.90;;;;;;4224887;28;20519;-83
2023/03/29 07:37:11;;;;;;;8.23;4.75;;;7.20;99.90;;;;;;4252967;27;20551;-83
2023/03/29 07:39:14;;;;;;;9.35;5.03;;;7.00;99.90;;;;;;4239320;27;20083;-83
2023/03/29 07:41:14;;;;;;;9.20;4.50;;;6.90;99.90;;;;;;4248747;27;20043;-83
2023/03/29 07:43:17;;;;;;;9.63;4.97;;;6.90;99.90;;;;;;4203381;28;20457;-82
2023/03/29 07:45:19;;;;;;;10.50;5.03;;;6.90;99.90;;;;;;4205297;28;20600;-82
2023/03/29 07:47:21;;;;;;;9.57;4.95;;;6.90;99.90;;;;;;4246315;27;20078;-83
2023/03/29 07:49:21;;;;;;;12.77;5.90;;;7.30;99.90;;;;;;4219487;28;20452;-82
2023/03/29 07:51:23;;;;;;;8.65;4.68;;;7.20;99.90;;;;;;4247202;27;20043;-84
2023/03/29 07:53:24;;;;;;;11.40;4.97;;;6.90;99.90;;;;;;4237308;27;20052;-83
2023/03/29 07:55:24;;;;;;;7.93;4.35;;;6.90;99.90;;;;;;4217220;28;20054;-83
2023/03/29 07:57:26;;;;;;;8.93;4.80;;;6.90;99.90;;;;;;4237404;28;20128;-83
2023/03/29 07:59:27;;;;;;;16.35;4.88;;;6.90;99.90;;;;;;4245116;27;20036;-82
2023/03/29 08:01:29;;;;;;;8.63;4.43;;;6.90;99.90;;;;;;4229773;28;20047;-84
2023/03/29 08:03:30;;;;;;;12.68;5.00;;;6.90;99.90;;;;;;4252869;27;20043;-85
2023/03/29 08:05:32;;;;;;;13.00;4.80;;;6.90;99.90;;;;;;4231922;27;20047;-85
2023/03/29 08:07:32;;;;;;;8.88;5.22;;;7.00;99.90;;;;;;4235167;28;20040;-85
2023/03/29 08:09:36;;;;;;;9.82;5.63;;;7.10;99.90;;;;;;4236581;28;20503;-85
2023/03/29 08:11:38;;;;;;;11.43;5.60;;;7.10;99.90;;;;;;4216138;28;20066;-84
2023/03/29 08:13:39;;;;;;;9.38;4.53;;;7.30;99.90;;;;;;4229613;28;20055;-85
2023/03/29 08:15:44;;;;;;;9.95;4.50;;;7.40;99.90;;;;;;4232631;28;20463;-85
2023/03/29 08:17:45;;;;;;;11.25;5.10;;;7.50;99.90;;;;;;4194206;28;20060;-85
2023/03/29 08:19:48;;;;;;;9.10;4.55;;;7.60;99.90;;;;;;4252933;27;20028;-85
2023/03/29 08:21:49;;;;;;;14.73;4.80;;;7.60;99.90;;;;;;4230316;27;20048;-85
2023/03/29 08:23:50;;;;;;;8.63;3.97;;;7.60;99.90;;;;;;4247392;27;20404;-85
2023/03/29 08:25:55;;;;;;;10.75;4.68;;;7.60;99.90;;;;;;4251415;27;20060;-85
2023/03/29 08:27:56;;;;;;;14.75;4.97;;;7.60;99.90;;;;;;4221730;28;20032;-85
2023/03/29 08:29:57;;;;;;;10.25;5.22;;;7.60;99.90;;;;;;4252807;27;20069;-85
2023/03/29 08:31:58;;;;;;;13.25;5.30;;;7.60;99.90;;;;;;4251049;27;20023;-84
2023/03/29 08:33:59;;;;;;;9.98;4.45;;;7.70;99.90;;;;;;4219275;28;20502;-85
2023/03/29 08:36:00;;;;;;;7.80;4.20;;;7.80;99.90;;;;;;4225231;27;20083;-85
2023/03/29 08:38:01;;;;;;;8.07;5.00;;;8.00;99.90;;;;;;4228789;28;20108;-86
2023/03/29 08:40:20;;;;;;;13.35;4.53;;;8.20;99.90;;;;;;4235662;28;20095;-86
2023/03/29 08:42:30;;;;;;;6.43;3.72;;;8.80;99.90;;;;;;4236180;28;20039;-85
2023/03/29 08:44:42;;;;;;;9.55;4.97;;;8.70;99.90;;;;;;4243138;27;20031;-85
2023/03/29 08:47:08;;;;;;;11.18;4.53;;;8.50;99.90;;;;;;4242285;27;20089;-85
2023/03/29 08:49:11;;;;;;;9.27;4.57;;;8.50;99.90;;;;;;4221935;28;20049;-87
2023/03/29 08:51:57;;;;;;;13.45;4.70;;;7.70;99.90;;;;;;4198622;28;20070;-84
2023/03/29 08:54:37;;;;;;;8.57;5.22;;;8.50;99.90;;;;;;4211561;28;20059;-83
2023/03/29 08:59:57;;;;;;;9.05;4.60;;;9.10;99.90;;;;;;4202035;28;20400;-83
2023/03/29 09:02:01;;;;;;;11.38;5.93;;;9.50;99.90;;;;;;4200335;28;20065;-83
2023/03/29 09:04:15;;;;;;;10.00;5.25;;;9.40;99.90;;;;;;4210543;28;20864;-83
2023/03/29 09:06:20;;;;;;;12.68;4.22;;;8.50;99.90;;;;;;4217500;28;20425;-84
2023/03/29 09:08:22;;;;;;;10.23;5.05;;;9.20;99.90;;;;;;4216468;28;20496;-84
2023/03/29 09:10:52;;;;;;;11.65;5.70;;;9.20;99.90;;;;;;4221547;28;20484;-84
2023/03/29 09:13:12;;;;;;;10.38;5.05;;;9.20;99.90;;;;;;4232394;27;20043;-84
2023/03/29 09:15:59;;;;;;;14.95;5.45;;;9.20;99.90;;;;;;4229293;28;20122;-83
2023/03/29 09:18:18;;;;;;;8.32;4.97;;;9.40;99.90;;;;;;4202133;28;20051;-83
2023/03/29 09:20:52;;;;;;;10.85;4.55;;;9.30;99.90;;;;;;4245871;27;20038;-84
2023/03/29 09:23:29;;;;;;;11.20;4.80;;;9.30;99.90;;;;;;4243626;27;20097;-83
2023/03/29 09:25:52;;;;;;;10.52;4.78;;;9.30;99.90;;;;;;4235596;27;20054;-83
2023/03/29 09:28:01;;;;;;;13.60;5.53;;;8.90;99.90;;;;;;4185652;28;20049;-83
2023/03/29 09:30:24;;;;;;;11.10;4.97;;;9.60;99.90;;;;;;4247814;27;20035;-83
2023/03/29 09:32:39;;;;;;;12.30;5.53;;;9.80;99.90;;;;;;4241340;27;20035;-83
2023/03/29 09:34:46;;;;;;;16.90;6.22;;;9.90;99.90;;;;;;4208244;28;20045;-83
2023/03/29 09:37:26;;;;;;;11.63;5.15;;;9.80;99.90;;;;;;4226348;28;20115;-84
2023/03/29 09:39:27;;;;;;;15.60;5.40;;;9.70;99.90;;;;;;4179653;28;20474;-84
2023/03/29 09:41:35;;;;;;;12.18;5.25;;;9.60;99.90;;;;;;4248820;27;20031;-83
2023/03/29 09:43:41;;;;;;;12.55;5.10;;;9.60;99.90;;;;;;4240339;27;20062;-83
2023/03/29 09:45:46;;;;;;;11.55;5.75;;;9.60;99.90;;;;;;4231710;28;20047;-84
2023/03/29 09:48:16;;;;;;;13.10;5.25;;;9.60;99.90;;;;;;4219519;28;20140;-84
2023/03/29 09:50:50;;;;;;;11.27;5.93;;;9.50;99.90;;;;;;4237861;27;20050;-83
2023/03/29 09:52:51;;;;;;;13.00;5.45;;;9.60;99.90;;;;;;4180197;28;20043;-84
2023/03/29 09:54:53;;;;;;;21.98;7.10;;;9.70;99.90;;;;;;4261388;27;20031;-83
2023/03/29 09:56:54;;;;;;;16.60;6.25;;;9.80;99.90;;;;;;4269078;27;20051;-84
2023/03/29 09:58:55;;;;;;;16.30;6.43;;;9.80;99.90;;;;;;4258757;27;20039;-83
2023/03/29 10:01:01;;;;;;;20.85;6.20;;;9.70;99.90;;;;;;4224156;28;20036;-84
2023/03/29 10:03:02;;;;;;;12.35;5.43;;;9.40;99.90;;;;;;4252766;28;20034;-84
2023/03/29 10:05:06;;;;;;;15.48;6.18;;;9.70;99.90;;;;;;4252685;28;20043;-84
2023/03/29 10:07:17;;;;;;;15.05;6.15;;;9.70;99.90;;;;;;4247448;27;20024;-84
2023/03/29 10:09:23;;;;;;;18.17;5.75;;;9.80;99.90;;;;;;4255690;27;20035;-82
2023/03/29 10:11:34;;;;;;;16.02;5.75;;;9.80;99.90;;;;;;4218154;28;20048;-82
2023/03/29 10:13:42;;;;;;;15.52;6.70;;;9.80;99.90;;;;;;4203517;28;20044;-84
2023/03/29 10:16:06;;;;;;;17.98;6.70;;;9.90;99.90;;;;;;4206849;28;20063;-85
2023/03/29 10:18:12;;;;;;;15.68;6.43;;;9.80;99.90;;;;;;4225406;27;20067;-84
2023/03/29 10:20:17;;;;;;;10.85;6.07;;;9.80;99.90;;;;;;4261370;27;20039;-84
2023/03/29 10:25:40;;;;;;;11.32;6.10;;;9.90;99.90;;;;;;4263742;27;20058;-84
2023/03/29 10:27:47;;;;;;;14.40;6.63;;;9.90;99.90;;;;;;4233450;28;20059;-84
2023/03/29 10:29:50;;;;;;;14.13;6.32;;;10.00;99.90;;;;;;4242442;27;20051;-84
2023/03/29 10:31:52;;;;;;;13.43;6.75;;;10.00;99.90;;;;;;4216516;28;20050;-84
2023/03/29 10:34:14;;;;;;;15.90;6.10;;;10.10;99.90;;;;;;4234502;28;20044;-84
2023/03/29 10:36:15;;;;;;;14.40;6.13;;;10.10;99.90;;;;;;4234982;28;20047;-84
2023/03/29 10:38:19;;;;;;;13.63;6.50;;;10.10;99.90;;;;;;4215879;28;20055;-85
2023/03/29 10:40:33;;;;;;;15.05;7.15;;;9.90;99.90;;;;;;4239378;28;20043;-84
2023/03/29 10:42:34;;;;;;;15.65;7.00;;;10.10;99.90;;;;;;4220241;28;20411;-85
2023/03/29 10:44:36;;;;;;;12.70;6.38;;;10.20;99.90;;;;;;4214276;28;20043;-85
2023/03/29 10:46:42;;;;;;;14.38;6.55;;;10.30;99.90;;;;;;4223696;28;20047;-84
2023/03/29 10:48:49;;;;;;;11.10;5.93;;;10.30;99.90;;;;;;4225441;28;20101;-83
2023/03/29 10:50:54;;;;;;;13.20;6.78;;;10.40;99.90;;;;;;4223850;28;20383;-84
2023/03/29 10:52:56;;;;;;;13.07;7.03;;;10.40;99.90;;;;;;4224389;28;20434;-85
2023/03/29 10:54:58;;;;;;;13.57;7.07;;;10.50;99.90;;;;;;4227061;28;20051;-85
2023/03/29 10:57:07;;;;;;;14.40;6.55;;;10.60;99.90;;;;;;4231566;28;20514;-85
2023/03/29 10:59:35;;;;;;;14.48;7.00;;;10.60;99.90;;;;;;4202561;28;20251;-84
2023/03/29 11:02:13;;;;;;;13.05;6.60;;;10.70;99.90;;;;;;4249323;28;20050;-84
2023/03/29 11:04:41;;;;;;;18.08;6.95;;;10.80;99.90;;;;;;4207210;28;20048;-85
2023/03/29 11:07:21;;;;;;;15.98;6.80;;;10.80;99.90;;;;;;4206089;28;20147;-84